sensor_id;sensor_type;location;lat;lon;timestamp;pressure;altitude;pressure_sealevel;temperature;humidity
60258;BME280;46115;44.484;11.314;2023-02-19T00:02:57;101252.88;;;11.13;72.52
60258;BME280;46115;44.484;11.314;2023-02-19T00:06:59;101246.22;;;11.24;72.14
60258;BME280;46115;44.484;11.314;2023-02-19T00:11:04;101237.19;;;11.30;71.55
60258;BME280;46115;44.484;11.314;2023-02-19T00:15:06;101245.25;;;11.27;72.15
60258;BME280;46115;44.484;11.314;2023-02-19T00:19:11;101233.66;;;11.30;71.86
60258;BME280;46115;44.484;11.314;2023-02-19T00:23:13;101225.00;;;11.26;71.60
60258;BME280;46115;44.484;11.314;2023-02-19T00:27:17;101202.88;;;11.05;72.23
60258;BME280;46115;44.484;11.314;2023-02-19T00:31:21;101222.66;;;11.18;72.23
60258;BME280;46115;44.484;11.314;2023-02-19T00:35:24;101222.59;;;11.20;71.68
60258;BME280;46115;44.484;11.314;2023-02-19T00:39:26;101230.53;;;11.20;71.74
60258;BME280;46115;44.484;11.314;2023-02-19T00:43:30;101220.19;;;11.14;72.99
60258;BME280;46115;44.484;11.314;2023-02-19T00:47:32;101226.09;;;11.20;72.30
60258;BME280;46115;44.484;11.314;2023-02-19T00:51:36;101213.50;;;11.04;73.15
60258;BME280;46115;44.484;11.314;2023-02-19T00:55:38;101212.84;;;10.99;73.42
60258;BME280;46115;44.484;11.314;2023-02-19T00:59:42;101209.38;;;10.97;73.14
60258;BME280;46115;44.484;11.314;2023-02-19T01:03:45;101211.28;;;10.93;72.79
60258;BME280;46115;44.484;11.314;2023-02-19T01:07:48;101203.47;;;10.90;73.57
60258;BME280;46115;44.484;11.314;2023-02-19T01:11:50;101203.78;;;10.82;74.28
60258;BME280;46115;44.484;11.314;2023-02-19T01:16:01;101196.78;;;10.81;73.77
60258;BME280;46115;44.484;11.314;2023-02-19T01:20:04;101204.81;;;10.78;73.65
60258;BME280;46115;44.484;11.314;2023-02-19T01:24:07;101196.09;;;10.76;74.85
60258;BME280;46115;44.484;11.314;2023-02-19T01:28:10;101204.22;;;10.70;74.37
60258;BME280;46115;44.484;11.314;2023-02-19T01:32:13;101188.28;;;10.72;74.82
60258;BME280;46115;44.484;11.314;2023-02-19T01:36:16;101188.72;;;10.61;74.87
60258;BME280;46115;44.484;11.314;2023-02-19T01:40:19;101176.28;;;10.63;75.06
60258;BME280;46115;44.484;11.314;2023-02-19T01:45:12;101178.75;;;10.68;75.34
60258;BME280;46115;44.484;11.314;2023-02-19T01:49:22;101170.78;;;10.69;75.33
60258;BME280;46115;44.484;11.314;2023-02-19T01:53:29;101181.41;;;10.68;75.89
60258;BME280;46115;44.484;11.314;2023-02-19T01:57:38;101149.06;;;10.61;75.87
60258;BME280;46115;44.484;11.314;2023-02-19T02:01:42;101172.84;;;10.84;76.03
60258;BME280;46115;44.484;11.314;2023-02-19T02:05:51;101165.34;;;10.96;75.58
60258;BME280;46115;44.484;11.314;2023-02-19T02:09:56;101171.06;;;10.85;75.66
60258;BME280;46115;44.484;11.314;2023-02-19T02:14:19;101173.16;;;10.77;75.65
60258;BME280;46115;44.484;11.314;2023-02-19T02:18:30;101165.88;;;10.82;75.16
60258;BME280;46115;44.484;11.314;2023-02-19T02:22:43;101174.63;;;10.84;75.36
60258;BME280;46115;44.484;11.314;2023-02-19T02:26:56;101165.31;;;10.74;75.56
60258;BME280;46115;44.484;11.314;2023-02-19T02:31:08;101161.06;;;10.70;74.27
60258;BME280;46115;44.484;11.314;2023-02-19T02:35:14;101162.06;;;9.94;74.02
60258;BME280;46115;44.484;11.314;2023-02-19T02:39:22;101160.19;;;9.46;75.01
60258;BME280;46115;44.484;11.314;2023-02-19T02:43:26;101155.38;;;9.59;72.74
60258;BME280;46115;44.484;11.314;2023-02-19T02:47:30;101153.44;;;8.83;74.46
60258;BME280;46115;44.484;11.314;2023-02-19T02:51:49;101144.94;;;9.01;73.79
60258;BME280;46115;44.484;11.314;2023-02-19T02:55:57;101136.84;;;9.07;73.68
60258;BME280;46115;44.484;11.314;2023-02-19T03:00:00;101136.69;;;8.84;74.25
60258;BME280;46115;44.484;11.314;2023-02-19T03:04:08;101133.78;;;8.93;74.17
60258;BME280;46115;44.484;11.314;2023-02-19T03:08:14;101130.22;;;8.66;75.00
60258;BME280;46115;44.484;11.314;2023-02-19T03:12:19;101131.78;;;8.44;76.02
60258;BME280;46115;44.484;11.314;2023-02-19T03:16:42;101129.34;;;8.67;75.21
60258;BME280;46115;44.484;11.314;2023-02-19T03:21:06;101127.63;;;8.65;75.88
60258;BME280;46115;44.484;11.314;2023-02-19T03:25:15;101128.03;;;8.81;76.93
60258;BME280;46115;44.484;11.314;2023-02-19T03:29:38;101134.13;;;8.83;77.54
60258;BME280;46115;44.484;11.314;2023-02-19T03:33:45;101110.19;;;8.89;78.16
60258;BME280;46115;44.484;11.314;2023-02-19T03:37:56;101129.09;;;8.75;78.96
60258;BME280;46115;44.484;11.314;2023-02-19T03:42:04;101114.25;;;8.99;78.78
60258;BME280;46115;44.484;11.314;2023-02-19T03:46:12;101121.53;;;9.19;79.31
60258;BME280;46115;44.484;11.314;2023-02-19T03:50:19;101119.56;;;8.97;79.54
60258;BME280;46115;44.484;11.314;2023-02-19T03:54:30;101120.47;;;8.96;79.48
60258;BME280;46115;44.484;11.314;2023-02-19T03:58:41;101123.03;;;8.99;79.80
60258;BME280;46115;44.484;11.314;2023-02-19T04:02:51;101111.50;;;9.03;79.66
60258;BME280;46115;44.484;11.314;2023-02-19T04:06:56;101121.19;;;9.03;79.53
60258;BME280;46115;44.484;11.314;2023-02-19T04:11:03;101126.81;;;8.91;79.48
60258;BME280;46115;44.484;11.314;2023-02-19T04:15:11;101128.72;;;8.58;80.86
60258;BME280;46115;44.484;11.314;2023-02-19T04:19:19;101126.69;;;8.67;80.61
60258;BME280;46115;44.484;11.314;2023-02-19T04:23:25;101129.41;;;8.35;80.84
60258;BME280;46115;44.484;11.314;2023-02-19T04:27:30;101124.13;;;8.64;80.44
60258;BME280;46115;44.484;11.314;2023-02-19T04:31:35;101119.44;;;8.74;80.03
60258;BME280;46115;44.484;11.314;2023-02-19T04:35:38;101123.22;;;8.65;80.26
60258;BME280;46115;44.484;11.314;2023-02-19T04:39:41;101116.16;;;8.67;80.16
60258;BME280;46115;44.484;11.314;2023-02-19T04:43:44;101124.16;;;8.63;80.33
60258;BME280;46115;44.484;11.314;2023-02-19T04:47:47;101122.53;;;8.59;81.06
60258;BME280;46115;44.484;11.314;2023-02-19T04:51:49;101124.41;;;8.55;81.14
60258;BME280;46115;44.484;11.314;2023-02-19T04:55:51;101127.22;;;8.79;80.63
60258;BME280;46115;44.484;11.314;2023-02-19T04:59:55;101128.13;;;8.78;80.77
60258;BME280;46115;44.484;11.314;2023-02-19T05:03:57;101129.91;;;8.77;80.40
60258;BME280;46115;44.484;11.314;2023-02-19T05:07:59;101125.81;;;8.67;80.63
60258;BME280;46115;44.484;11.314;2023-02-19T05:12:02;101093.75;;;8.53;80.01
60258;BME280;46115;44.484;11.314;2023-02-19T05:16:10;101123.81;;;8.75;79.24
60258;BME280;46115;44.484;11.314;2023-02-19T05:20:14;101120.56;;;8.65;79.42
60258;BME280;46115;44.484;11.314;2023-02-19T05:24:16;101132.28;;;8.85;79.46
60258;BME280;46115;44.484;11.314;2023-02-19T05:28:18;101111.69;;;8.69;79.30
60258;BME280;46115;44.484;11.314;2023-02-19T05:32:22;101135.22;;;8.75;79.49
60258;BME280;46115;44.484;11.314;2023-02-19T05:36:24;101127.50;;;8.69;80.17
60258;BME280;46115;44.484;11.314;2023-02-19T05:40:26;101125.91;;;8.64;80.61
60258;BME280;46115;44.484;11.314;2023-02-19T05:44:29;101119.13;;;8.55;80.57
60258;BME280;46115;44.484;11.314;2023-02-19T05:48:32;101103.03;;;8.36;80.38
60258;BME280;46115;44.484;11.314;2023-02-19T05:52:35;101102.25;;;8.31;79.76
60258;BME280;46115;44.484;11.314;2023-02-19T05:56:39;101105.97;;;8.24;79.31
60258;BME280;46115;44.484;11.314;2023-02-19T06:00:41;101104.66;;;8.09;79.94
60258;BME280;46115;44.484;11.314;2023-02-19T06:04:45;101102.84;;;8.11;80.01
60258;BME280;46115;44.484;11.314;2023-02-19T06:08:48;101097.31;;;8.21;80.21
60258;BME280;46115;44.484;11.314;2023-02-19T06:12:52;101098.47;;;8.10;80.64
60258;BME280;46115;44.484;11.314;2023-02-19T06:16:54;101103.16;;;8.30;80.33
60258;BME280;46115;44.484;11.314;2023-02-19T06:21:00;101106.44;;;8.40;80.53
60258;BME280;46115;44.484;11.314;2023-02-19T06:25:03;101094.53;;;8.25;79.89
60258;BME280;46115;44.484;11.314;2023-02-19T06:29:07;101107.50;;;8.33;80.13
60258;BME280;46115;44.484;11.314;2023-02-19T06:33:10;101103.19;;;8.29;80.40
60258;BME280;46115;44.484;11.314;2023-02-19T06:37:13;101106.63;;;8.34;80.26
60258;BME280;46115;44.484;11.314;2023-02-19T06:41:16;101074.97;;;8.35;80.01
60258;BME280;46115;44.484;11.314;2023-02-19T06:45:18;101103.78;;;8.69;79.46
60258;BME280;46115;44.484;11.314;2023-02-19T06:49:21;101111.66;;;8.71;79.93
60258;BME280;46115;44.484;11.314;2023-02-19T06:53:25;101102.78;;;8.73;79.80
60258;BME280;46115;44.484;11.314;2023-02-19T06:57:27;101102.47;;;8.83;79.57
60258;BME280;46115;44.484;11.314;2023-02-19T07:01:31;101094.16;;;8.95;79.85
60258;BME280;46115;44.484;11.314;2023-02-19T07:05:34;101094.06;;;8.98;79.71
60258;BME280;46115;44.484;11.314;2023-02-19T07:09:38;101098.38;;;9.00;79.46
60258;BME280;46115;44.484;11.314;2023-02-19T07:13:40;101096.00;;;9.46;77.61
60258;BME280;46115;44.484;11.314;2023-02-19T07:17:43;101092.06;;;10.30;74.24
60258;BME280;46115;44.484;11.314;2023-02-19T07:21:45;101097.34;;;11.19;71.11
60258;BME280;46115;44.484;11.314;2023-02-19T07:25:48;101105.31;;;11.82;69.55
60258;BME280;46115;44.484;11.314;2023-02-19T07:29:51;101099.75;;;12.07;67.40
60258;BME280;46115;44.484;11.314;2023-02-19T07:33:53;101098.84;;;12.64;65.29
60258;BME280;46115;44.484;11.314;2023-02-19T07:37:55;101087.03;;;13.94;60.42
60258;BME280;46115;44.484;11.314;2023-02-19T07:41:59;101082.19;;;14.82;57.84
60258;BME280;46115;44.484;11.314;2023-02-19T07:46:02;101091.13;;;14.97;56.57
60258;BME280;46115;44.484;11.314;2023-02-19T07:50:05;101114.31;;;15.55;55.18
60258;BME280;46115;44.484;11.314;2023-02-19T07:54:07;101092.03;;;15.42;55.81
60258;BME280;46115;44.484;11.314;2023-02-19T07:58:11;101109.09;;;17.50;50.59
60258;BME280;46115;44.484;11.314;2023-02-19T08:02:15;101103.72;;;19.13;46.48
60258;BME280;46115;44.484;11.314;2023-02-19T08:06:35;101105.53;;;19.13;46.50
60258;BME280;46115;44.484;11.314;2023-02-19T08:10:37;101097.28;;;18.43;48.10
60258;BME280;46115;44.484;11.314;2023-02-19T08:14:58;101115.19;;;19.50;45.76
60258;BME280;46115;44.484;11.314;2023-02-19T08:19:01;101105.88;;;22.58;39.47
60258;BME280;46115;44.484;11.314;2023-02-19T08:23:03;101125.47;;;23.78;37.28
60258;BME280;46115;44.484;11.314;2023-02-19T08:27:06;101125.72;;;24.78;35.27
60258;BME280;46115;44.484;11.314;2023-02-19T08:31:10;101128.63;;;24.67;35.44
60258;BME280;46115;44.484;11.314;2023-02-19T08:35:13;101127.25;;;25.26;34.43
60258;BME280;46115;44.484;11.314;2023-02-19T08:39:15;101132.22;;;24.85;34.58
60258;BME280;46115;44.484;11.314;2023-02-19T08:43:18;101136.00;;;25.55;34.12
60258;BME280;46115;44.484;11.314;2023-02-19T08:47:22;101137.31;;;25.51;34.05
60258;BME280;46115;44.484;11.314;2023-02-19T08:51:24;101131.56;;;27.34;31.17
60258;BME280;46115;44.484;11.314;2023-02-19T08:55:27;101124.41;;;24.82;34.40
60258;BME280;46115;44.484;11.314;2023-02-19T08:59:29;101132.44;;;25.19;34.10
60258;BME280;46115;44.484;11.314;2023-02-19T09:03:33;101132.00;;;25.77;33.31
60258;BME280;46115;44.484;11.314;2023-02-19T09:07:35;101127.06;;;25.37;33.61
60258;BME280;46115;44.484;11.314;2023-02-19T09:11:38;101121.44;;;25.92;32.61
60258;BME280;46115;44.484;11.314;2023-02-19T09:15:40;101128.72;;;25.91;32.80
60258;BME280;46115;44.484;11.314;2023-02-19T09:19:44;101135.88;;;25.74;33.38
60258;BME280;46115;44.484;11.314;2023-02-19T09:23:46;101136.84;;;26.77;31.49
60258;BME280;46115;44.484;11.314;2023-02-19T09:27:48;101132.69;;;26.99;30.54
60258;BME280;46115;44.484;11.314;2023-02-19T09:31:55;101128.50;;;30.19;26.85
60258;BME280;46115;44.484;11.314;2023-02-19T09:35:59;101130.72;;;29.09;27.53
60258;BME280;46115;44.484;11.314;2023-02-19T09:40:02;101122.59;;;27.42;29.89
60258;BME280;46115;44.484;11.314;2023-02-19T09:44:06;101121.94;;;27.64;29.85
60258;BME280;46115;44.484;11.314;2023-02-19T09:48:11;101127.72;;;30.10;26.80
60258;BME280;46115;44.484;11.314;2023-02-19T09:52:18;101119.25;;;25.95;32.51
60258;BME280;46115;44.484;11.314;2023-02-19T09:56:26;101110.22;;;26.13;32.06
60258;BME280;46115;44.484;11.314;2023-02-19T10:00:32;101099.66;;;22.77;38.13
60258;BME280;46115;44.484;11.314;2023-02-19T10:04:35;101085.69;;;23.12;38.25
60258;BME280;46115;44.484;11.314;2023-02-19T10:08:40;101083.06;;;22.22;39.94
60258;BME280;46115;44.484;11.314;2023-02-19T10:12:46;101069.03;;;21.35;41.59
60258;BME280;46115;44.484;11.314;2023-02-19T10:16:51;101081.97;;;21.62;40.89
60258;BME280;46115;44.484;11.314;2023-02-19T10:20:54;101058.94;;;20.73;42.67
60258;BME280;46115;44.484;11.314;2023-02-19T10:24:59;101059.06;;;20.83;43.04
60258;BME280;46115;44.484;11.314;2023-02-19T10:29:01;101055.84;;;20.12;44.48
60258;BME280;46115;44.484;11.314;2023-02-19T10:33:09;101030.94;;;20.10;44.68
60258;BME280;46115;44.484;11.314;2023-02-19T10:37:13;101045.69;;;20.27;44.92
60258;BME280;46115;44.484;11.314;2023-02-19T10:41:20;101024.72;;;19.06;47.42
60258;BME280;46115;44.484;11.314;2023-02-19T10:45:27;101027.13;;;19.57;45.97
60258;BME280;46115;44.484;11.314;2023-02-19T10:49:32;101039.16;;;19.51;46.75
60258;BME280;46115;44.484;11.314;2023-02-19T10:53:42;101021.88;;;19.67;46.31
60258;BME280;46115;44.484;11.314;2023-02-19T10:57:46;101033.00;;;19.38;47.50
60258;BME280;46115;44.484;11.314;2023-02-19T11:01:55;101029.28;;;18.82;48.27
60258;BME280;46115;44.484;11.314;2023-02-19T11:06:00;101005.41;;;18.42;48.90
60258;BME280;46115;44.484;11.314;2023-02-19T11:10:04;101006.63;;;18.62;49.76
60258;BME280;46115;44.484;11.314;2023-02-19T11:14:14;101001.34;;;18.36;49.49
60258;BME280;46115;44.484;11.314;2023-02-19T11:18:21;101001.03;;;18.28;49.28
60258;BME280;46115;44.484;11.314;2023-02-19T11:22:29;100993.91;;;18.03;50.50
60258;BME280;46115;44.484;11.314;2023-02-19T11:26:32;100978.53;;;17.94;50.33
60258;BME280;46115;44.484;11.314;2023-02-19T11:30:40;100982.28;;;18.04;50.87
60258;BME280;46115;44.484;11.314;2023-02-19T11:34:42;100976.25;;;18.14;50.25
60258;BME280;46115;44.484;11.314;2023-02-19T11:38:45;100977.03;;;18.03;51.07
60258;BME280;46115;44.484;11.314;2023-02-19T11:42:51;100961.63;;;18.06;50.31
60258;BME280;46115;44.484;11.314;2023-02-19T11:47:03;100972.34;;;17.94;51.12
60258;BME280;46115;44.484;11.314;2023-02-19T11:51:18;100932.44;;;17.65;51.69
60258;BME280;46115;44.484;11.314;2023-02-19T11:55:31;100930.00;;;17.62;51.13
60258;BME280;46115;44.484;11.314;2023-02-19T11:59:36;100954.91;;;17.88;51.31
60258;BME280;46115;44.484;11.314;2023-02-19T12:13:00;100946.91;;;17.25;52.47
60258;BME280;46115;44.484;11.314;2023-02-19T12:17:13;100938.13;;;17.23;54.29
60258;BME280;46115;44.484;11.314;2023-02-19T12:21:28;100936.56;;;17.71;51.67
60258;BME280;46115;44.484;11.314;2023-02-19T12:25:52;100929.88;;;17.64;51.98
60258;BME280;46115;44.484;11.314;2023-02-19T12:34:40;100907.78;;;17.49;52.54
60258;BME280;46115;44.484;11.314;2023-02-19T12:38:56;100925.09;;;17.82;52.06
60258;BME280;46115;44.484;11.314;2023-02-19T12:43:12;100930.66;;;17.79;51.81
60258;BME280;46115;44.484;11.314;2023-02-19T12:47:19;100919.09;;;17.53;52.60
60258;BME280;46115;44.484;11.314;2023-02-19T12:51:25;100917.25;;;17.66;52.86
60258;BME280;46115;44.484;11.314;2023-02-19T12:55:33;100909.47;;;17.63;53.09
60258;BME280;46115;44.484;11.314;2023-02-19T12:59:40;100913.78;;;17.40;53.40
60258;BME280;46115;44.484;11.314;2023-02-19T13:03:47;100923.59;;;17.52;52.76
60258;BME280;46115;44.484;11.314;2023-02-19T13:07:57;100913.56;;;17.43;53.23
60258;BME280;46115;44.484;11.314;2023-02-19T13:12:05;100924.44;;;17.53;52.52
60258;BME280;46115;44.484;11.314;2023-02-19T13:16:12;100920.69;;;17.55;52.49
60258;BME280;46115;44.484;11.314;2023-02-19T13:20:22;100917.41;;;17.01;54.13
60258;BME280;46115;44.484;11.314;2023-02-19T13:24:29;100911.63;;;17.20;54.13
60258;BME280;46115;44.484;11.314;2023-02-19T13:28:47;100897.94;;;17.24;53.71
60258;BME280;46115;44.484;11.314;2023-02-19T13:32:57;100898.81;;;17.37;53.54
60258;BME280;46115;44.484;11.314;2023-02-19T13:37:02;100881.81;;;16.88;54.40
60258;BME280;46115;44.484;11.314;2023-02-19T13:41:05;100875.50;;;17.39;53.24
60258;BME280;46115;44.484;11.314;2023-02-19T13:45:20;100886.81;;;17.30;54.20
60258;BME280;46115;44.484;11.314;2023-02-19T13:49:39;100875.50;;;16.89;54.37
60258;BME280;46115;44.484;11.314;2023-02-19T13:53:54;100863.53;;;16.94;54.85
60258;BME280;46115;44.484;11.314;2023-02-19T14:02:35;100869.22;;;16.50;55.68
60258;BME280;46115;44.484;11.314;2023-02-19T14:16:01;100861.72;;;16.82;55.34
60258;BME280;46115;44.484;11.314;2023-02-19T14:20:38;100851.47;;;16.76;55.06
60258;BME280;46115;44.484;11.314;2023-02-19T14:24:41;100857.03;;;16.86;54.85
60258;BME280;46115;44.484;11.314;2023-02-19T14:28:44;100856.72;;;16.77;55.32
60258;BME280;46115;44.484;11.314;2023-02-19T14:32:47;100827.84;;;16.30;56.02
60258;BME280;46115;44.484;11.314;2023-02-19T14:36:52;100856.00;;;16.61;55.38
60258;BME280;46115;44.484;11.314;2023-02-19T14:40:56;100838.06;;;16.63;55.09
60258;BME280;46115;44.484;11.314;2023-02-19T14:45:02;100841.66;;;16.49;55.58
60258;BME280;46115;44.484;11.314;2023-02-19T14:49:13;100838.16;;;16.49;56.14
60258;BME280;46115;44.484;11.314;2023-02-19T14:53:20;100840.91;;;16.35;56.28
60258;BME280;46115;44.484;11.314;2023-02-19T14:57:27;100836.88;;;15.88;57.91
60258;BME280;46115;44.484;11.314;2023-02-19T15:01:30;100826.91;;;15.77;58.31
60258;BME280;46115;44.484;11.314;2023-02-19T15:05:34;100834.53;;;16.10;57.85
60258;BME280;46115;44.484;11.314;2023-02-19T15:09:41;100833.50;;;15.72;58.70
60258;BME280;46115;44.484;11.314;2023-02-19T15:13:48;100826.59;;;15.96;58.33
60258;BME280;46115;44.484;11.314;2023-02-19T15:17:52;100813.81;;;15.60;59.08
60258;BME280;46115;44.484;11.314;2023-02-19T15:21:55;100812.94;;;15.74;58.75
60258;BME280;46115;44.484;11.314;2023-02-19T15:25:59;100814.25;;;15.81;58.82
60258;BME280;46115;44.484;11.314;2023-02-19T15:30:01;100824.81;;;15.82;58.88
60258;BME280;46115;44.484;11.314;2023-02-19T15:34:13;100805.63;;;15.49;59.15
60258;BME280;46115;44.484;11.314;2023-02-19T15:38:16;100833.44;;;15.31;60.50
60258;BME280;46115;44.484;11.314;2023-02-19T15:42:23;100842.09;;;15.34;60.51
60258;BME280;46115;44.484;11.314;2023-02-19T15:46:26;100839.31;;;15.50;59.94
60258;BME280;46115;44.484;11.314;2023-02-19T15:50:29;100835.34;;;15.28;60.61
60258;BME280;46115;44.484;11.314;2023-02-19T15:54:38;100834.38;;;15.44;60.30
60258;BME280;46115;44.484;11.314;2023-02-19T15:58:49;100828.03;;;15.32;60.69
60258;BME280;46115;44.484;11.314;2023-02-19T16:02:54;100825.38;;;15.32;60.85
60258;BME280;46115;44.484;11.314;2023-02-19T16:06:57;100838.75;;;15.16;61.34
60258;BME280;46115;44.484;11.314;2023-02-19T16:11:01;100843.78;;;15.21;61.08
60258;BME280;46115;44.484;11.314;2023-02-19T16:15:12;100847.41;;;14.91;62.21
60258;BME280;46115;44.484;11.314;2023-02-19T16:19:20;100844.53;;;14.66;63.03
60258;BME280;46115;44.484;11.314;2023-02-19T16:23:22;100840.44;;;14.60;63.50
60258;BME280;46115;44.484;11.314;2023-02-19T16:27:36;100850.97;;;14.62;63.28
60258;BME280;46115;44.484;11.314;2023-02-19T16:32:03;100774.28;;;13.94;63.86
60258;BME280;46115;44.484;11.314;2023-02-19T16:36:23;100851.25;;;14.42;64.61
60258;BME280;46115;44.484;11.314;2023-02-19T16:44:59;100872.38;;;14.45;64.18
60258;BME280;46115;44.484;11.314;2023-02-19T16:49:03;100884.47;;;14.34;64.55
60258;BME280;46115;44.484;11.314;2023-02-19T16:53:05;100857.53;;;13.95;65.51
60258;BME280;46115;44.484;11.314;2023-02-19T16:57:08;100902.00;;;14.23;65.26
60258;BME280;46115;44.484;11.314;2023-02-19T17:01:10;100905.53;;;14.23;65.32
60258;BME280;46115;44.484;11.314;2023-02-19T17:05:14;100907.38;;;14.21;65.71
60258;BME280;46115;44.484;11.314;2023-02-19T17:09:16;100906.69;;;14.18;65.24
60258;BME280;46115;44.484;11.314;2023-02-19T17:13:22;100909.81;;;14.26;65.80
60258;BME280;46115;44.484;11.314;2023-02-19T23:06:08;101190.56;;;9.31;83.14
60258;BME280;46115;44.484;11.314;2023-02-19T23:10:11;101190.25;;;8.86;79.20
60258;BME280;46115;44.484;11.314;2023-02-19T23:14:15;101195.03;;;9.03;80.84
60258;BME280;46115;44.484;11.314;2023-02-19T23:18:18;101189.31;;;9.17;83.08
60258;BME280;46115;44.484;11.314;2023-02-19T23:22:21;101194.41;;;8.93;82.03
60258;BME280;46115;44.484;11.314;2023-02-19T23:26:24;101201.41;;;8.65;75.59
60258;BME280;46115;44.484;11.314;2023-02-19T23:30:26;101199.69;;;8.33;80.08
60258;BME280;46115;44.484;11.314;2023-02-19T23:34:29;101203.13;;;8.67;80.27
60258;BME280;46115;44.484;11.314;2023-02-19T23:38:33;101194.69;;;8.84;82.95
60258;BME280;46115;44.484;11.314;2023-02-19T23:42:35;101192.03;;;8.86;83.10
60258;BME280;46115;44.484;11.314;2023-02-19T23:46:37;101189.34;;;8.87;84.30
60258;BME280;46115;44.484;11.314;2023-02-19T23:50:39;101184.84;;;8.91;85.30
60258;BME280;46115;44.484;11.314;2023-02-19T23:54:43;101187.38;;;8.94;83.58
60258;BME280;46115;44.484;11.314;2023-02-19T23:58:45;101192.69;;;8.63;82.94
